Terminal Aerodrome Forecast
Issued by NWS

Home | Current Version | Previous Version | Text Only | Print | Product List | Glossary On
Versions: 1 2 3 4 5 6 7 8 9 10 11 12 13 14
000
FTUS45 KREV 311900 AAA
TAFRNO
TAF AMD
KRNO 311904Z 3119/0118 21014G25KT P6SM SCT070 BKN140
     FM010200 26011G19KT P6SM -SHRA SCT040 OVC070
     FM010500 30008KT 6SM -SHRA SCT025 OVC040
     FM011400 32010KT P6SM SCT030 OVC050=

USA.gov is the U.S. government's official web portal to all federal, state and local government web resources and services.